sensor_id;sensor_type;location;lat;lon;timestamp;P1;durP1;ratioP1;P2;durP2;ratioP2
37931;SDS011;23758;42.640;23.302;2023-02-19T00:00:30;3.10;;;2.90;;
37931;SDS011;23758;42.640;23.302;2023-02-19T00:02:55;2.85;;;2.65;;
37931;SDS011;23758;42.640;23.302;2023-02-19T00:05:21;2.95;;;2.75;;
37931;SDS011;23758;42.640;23.302;2023-02-19T00:07:47;3.10;;;2.90;;
37931;SDS011;23758;42.640;23.302;2023-02-19T00:10:13;3.10;;;2.90;;
37931;SDS011;23758;42.640;23.302;2023-02-19T00:12:38;3.90;;;3.60;;
37931;SDS011;23758;42.640;23.302;2023-02-19T00:15:04;3.20;;;3.00;;
37931;SDS011;23758;42.640;23.302;2023-02-19T00:17:30;3.10;;;2.90;;
37931;SDS011;23758;42.640;23.302;2023-02-19T00:19:55;3.60;;;3.40;;
37931;SDS011;23758;42.640;23.302;2023-02-19T00:22:21;4.05;;;3.75;;
37931;SDS011;23758;42.640;23.302;2023-02-19T00:24:47;3.10;;;2.90;;
37931;SDS011;23758;42.640;23.302;2023-02-19T00:27:12;4.05;;;3.30;;
37931;SDS011;23758;42.640;23.302;2023-02-19T00:29:38;3.40;;;3.20;;
37931;SDS011;23758;42.640;23.302;2023-02-19T00:32:03;3.30;;;3.10;;
37931;SDS011;23758;42.640;23.302;2023-02-19T00:34:29;3.40;;;3.20;;
37931;SDS011;23758;42.640;23.302;2023-02-19T00:36:54;3.13;;;2.92;;
37931;SDS011;23758;42.640;23.302;2023-02-19T00:39:20;3.22;;;3.03;;
37931;SDS011;23758;42.640;23.302;2023-02-19T00:41:45;3.00;;;2.80;;
37931;SDS011;23758;42.640;23.302;2023-02-19T00:44:11;3.15;;;2.95;;
37931;SDS011;23758;42.640;23.302;2023-02-19T00:46:38;3.03;;;2.83;;
37931;SDS011;23758;42.640;23.302;2023-02-19T00:49:05;3.13;;;2.92;;
37931;SDS011;23758;42.640;23.302;2023-02-19T00:51:35;3.17;;;2.97;;
37931;SDS011;23758;42.640;23.302;2023-02-19T00:54:02;3.10;;;2.90;;
37931;SDS011;23758;42.640;23.302;2023-02-19T00:56:28;3.10;;;2.90;;
37931;SDS011;23758;42.640;23.302;2023-02-19T00:58:54;3.30;;;3.10;;
37931;SDS011;23758;42.640;23.302;2023-02-19T01:01:20;2.90;;;2.70;;
37931;SDS011;23758;42.640;23.302;2023-02-19T01:03:46;3.38;;;3.08;;
37931;SDS011;23758;42.640;23.302;2023-02-19T01:06:12;2.90;;;2.70;;
37931;SDS011;23758;42.640;23.302;2023-02-19T01:08:39;3.05;;;2.85;;
37931;SDS011;23758;42.640;23.302;2023-02-19T01:11:05;3.40;;;3.20;;
37931;SDS011;23758;42.640;23.302;2023-02-19T01:13:31;3.60;;;3.30;;
37931;SDS011;23758;42.640;23.302;2023-02-19T01:16:11;3.10;;;2.90;;
37931;SDS011;23758;42.640;23.302;2023-02-19T01:18:44;3.00;;;2.80;;
37931;SDS011;23758;42.640;23.302;2023-02-19T01:21:13;3.10;;;2.90;;
37931;SDS011;23758;42.640;23.302;2023-02-19T01:23:40;3.30;;;3.10;;
37931;SDS011;23758;42.640;23.302;2023-02-19T01:26:06;3.53;;;3.33;;
37931;SDS011;23758;42.640;23.302;2023-02-19T01:28:33;3.45;;;3.25;;
37931;SDS011;23758;42.640;23.302;2023-02-19T01:31:00;3.03;;;2.83;;
37931;SDS011;23758;42.640;23.302;2023-02-19T01:33:33;3.00;;;2.80;;
37931;SDS011;23758;42.640;23.302;2023-02-19T01:35:58;3.47;;;3.25;;
37931;SDS011;23758;42.640;23.302;2023-02-19T01:38:24;3.20;;;3.00;;
37931;SDS011;23758;42.640;23.302;2023-02-19T01:40:56;3.58;;;3.33;;
37931;SDS011;23758;42.640;23.302;2023-02-19T01:45:48;3.17;;;2.97;;
37931;SDS011;23758;42.640;23.302;2023-02-19T01:48:47;3.40;;;3.20;;
37931;SDS011;23758;42.640;23.302;2023-02-19T01:51:08;3.10;;;2.90;;
37931;SDS011;23758;42.640;23.302;2023-02-19T01:53:42;3.00;;;2.80;;
37931;SDS011;23758;42.640;23.302;2023-02-19T01:56:09;3.50;;;3.10;;
37931;SDS011;23758;42.640;23.302;2023-02-19T01:58:37;3.40;;;3.20;;
37931;SDS011;23758;42.640;23.302;2023-02-19T02:01:05;2.92;;;2.72;;
37931;SDS011;23758;42.640;23.302;2023-02-19T02:03:31;3.38;;;3.10;;
37931;SDS011;23758;42.640;23.302;2023-02-19T02:06:13;3.00;;;2.80;;
37931;SDS011;23758;42.640;23.302;2023-02-19T02:08:41;3.10;;;2.90;;
37931;SDS011;23758;42.640;23.302;2023-02-19T02:11:25;3.22;;;3.03;;
37931;SDS011;23758;42.640;23.302;2023-02-19T02:13:50;3.42;;;3.15;;
37931;SDS011;23758;42.640;23.302;2023-02-19T02:24:18;3.65;;;3.35;;
37931;SDS011;23758;42.640;23.302;2023-02-19T02:32:17;2.92;;;2.72;;
37931;SDS011;23758;42.640;23.302;2023-02-19T02:34:45;3.00;;;2.80;;
37931;SDS011;23758;42.640;23.302;2023-02-19T02:37:13;3.20;;;3.00;;
37931;SDS011;23758;42.640;23.302;2023-02-19T02:39:39;3.00;;;2.80;;
37931;SDS011;23758;42.640;23.302;2023-02-19T02:42:05;2.90;;;2.70;;
37931;SDS011;23758;42.640;23.302;2023-02-19T02:44:49;3.20;;;3.00;;
37931;SDS011;23758;42.640;23.302;2023-02-19T02:47:35;2.95;;;2.75;;
37931;SDS011;23758;42.640;23.302;2023-02-19T02:50:05;3.20;;;3.00;;
37931;SDS011;23758;42.640;23.302;2023-02-19T02:52:33;3.50;;;3.20;;
37931;SDS011;23758;42.640;23.302;2023-02-19T02:55:19;3.00;;;2.80;;
37931;SDS011;23758;42.640;23.302;2023-02-19T02:57:45;2.92;;;2.72;;
37931;SDS011;23758;42.640;23.302;2023-02-19T03:00:11;2.90;;;2.70;;
37931;SDS011;23758;42.640;23.302;2023-02-19T03:02:37;3.05;;;2.85;;
37931;SDS011;23758;42.640;23.302;2023-02-19T03:05:14;2.90;;;2.70;;
37931;SDS011;23758;42.640;23.302;2023-02-19T03:08:11;2.97;;;2.78;;
37931;SDS011;23758;42.640;23.302;2023-02-19T03:10:43;3.08;;;2.88;;
37931;SDS011;23758;42.640;23.302;2023-02-19T03:13:15;3.20;;;2.90;;
37931;SDS011;23758;42.640;23.302;2023-02-19T03:16:10;3.00;;;2.80;;
37931;SDS011;23758;42.640;23.302;2023-02-19T03:18:58;3.00;;;2.80;;
37931;SDS011;23758;42.640;23.302;2023-02-19T03:21:42;2.97;;;2.78;;
37931;SDS011;23758;42.640;23.302;2023-02-19T03:24:34;3.10;;;2.90;;
37931;SDS011;23758;42.640;23.302;2023-02-19T03:27:21;2.90;;;2.70;;
37931;SDS011;23758;42.640;23.302;2023-02-19T03:29:48;2.90;;;2.70;;
37931;SDS011;23758;42.640;23.302;2023-02-19T03:32:17;2.83;;;2.63;;
37931;SDS011;23758;42.640;23.302;2023-02-19T03:34:47;2.70;;;2.50;;
37931;SDS011;23758;42.640;23.302;2023-02-19T03:37:17;3.10;;;2.90;;
37931;SDS011;23758;42.640;23.302;2023-02-19T03:39:48;3.15;;;2.95;;
37931;SDS011;23758;42.640;23.302;2023-02-19T03:42:23;3.22;;;3.03;;
37931;SDS011;23758;42.640;23.302;2023-02-19T03:45:18;2.80;;;2.60;;
37931;SDS011;23758;42.640;23.302;2023-02-19T03:48:02;2.90;;;2.70;;
37931;SDS011;23758;42.640;23.302;2023-02-19T03:53:25;2.90;;;2.70;;
37931;SDS011;23758;42.640;23.302;2023-02-19T03:58:30;2.95;;;2.75;;
37931;SDS011;23758;42.640;23.302;2023-02-19T04:01:14;3.10;;;2.90;;
37931;SDS011;23758;42.640;23.302;2023-02-19T04:06:21;2.92;;;2.72;;
37931;SDS011;23758;42.640;23.302;2023-02-19T04:08:53;3.03;;;2.83;;
37931;SDS011;23758;42.640;23.302;2023-02-19T04:11:21;3.10;;;2.90;;
37931;SDS011;23758;42.640;23.302;2023-02-19T04:13:54;3.25;;;3.05;;
37931;SDS011;23758;42.640;23.302;2023-02-19T04:16:26;3.35;;;3.15;;
37931;SDS011;23758;42.640;23.302;2023-02-19T04:19:01;2.90;;;2.70;;
37931;SDS011;23758;42.640;23.302;2023-02-19T04:23:54;3.10;;;2.90;;
37931;SDS011;23758;42.640;23.302;2023-02-19T04:26:21;3.10;;;2.90;;
37931;SDS011;23758;42.640;23.302;2023-02-19T04:28:46;2.90;;;2.70;;
37931;SDS011;23758;42.640;23.302;2023-02-19T04:31:12;3.00;;;2.80;;
37931;SDS011;23758;42.640;23.302;2023-02-19T04:33:38;2.90;;;2.70;;
37931;SDS011;23758;42.640;23.302;2023-02-19T04:36:03;3.10;;;2.90;;
37931;SDS011;23758;42.640;23.302;2023-02-19T04:38:29;3.15;;;2.95;;
37931;SDS011;23758;42.640;23.302;2023-02-19T04:40:54;3.20;;;3.00;;
37931;SDS011;23758;42.640;23.302;2023-02-19T04:43:20;3.00;;;2.80;;
37931;SDS011;23758;42.640;23.302;2023-02-19T04:45:45;2.97;;;2.78;;
37931;SDS011;23758;42.640;23.302;2023-02-19T04:48:11;2.90;;;2.70;;
37931;SDS011;23758;42.640;23.302;2023-02-19T04:50:37;2.90;;;2.70;;
37931;SDS011;23758;42.640;23.302;2023-02-19T04:53:03;2.95;;;2.75;;
37931;SDS011;23758;42.640;23.302;2023-02-19T04:55:29;3.00;;;2.80;;
37931;SDS011;23758;42.640;23.302;2023-02-19T04:57:54;3.30;;;3.10;;
37931;SDS011;23758;42.640;23.302;2023-02-19T05:00:19;3.10;;;2.90;;
37931;SDS011;23758;42.640;23.302;2023-02-19T05:02:45;3.00;;;2.80;;
37931;SDS011;23758;42.640;23.302;2023-02-19T05:05:10;2.83;;;2.63;;
37931;SDS011;23758;42.640;23.302;2023-02-19T05:07:36;2.90;;;2.70;;
37931;SDS011;23758;42.640;23.302;2023-02-19T05:10:01;2.97;;;2.78;;
37931;SDS011;23758;42.640;23.302;2023-02-19T05:12:28;2.90;;;2.70;;
37931;SDS011;23758;42.640;23.302;2023-02-19T05:14:54;2.50;;;2.40;;
37931;SDS011;23758;42.640;23.302;2023-02-19T05:17:19;2.50;;;2.40;;
37931;SDS011;23758;42.640;23.302;2023-02-19T05:19:44;2.40;;;2.30;;
37931;SDS011;23758;42.640;23.302;2023-02-19T05:22:10;2.70;;;2.50;;
37931;SDS011;23758;42.640;23.302;2023-02-19T05:24:35;2.28;;;2.17;;
37931;SDS011;23758;42.640;23.302;2023-02-19T05:27:01;2.40;;;2.30;;
37931;SDS011;23758;42.640;23.302;2023-02-19T05:29:26;2.50;;;2.40;;
37931;SDS011;23758;42.640;23.302;2023-02-19T05:31:52;3.20;;;2.90;;
37931;SDS011;23758;42.640;23.302;2023-02-19T05:34:17;2.80;;;2.58;;
37931;SDS011;23758;42.640;23.302;2023-02-19T05:36:42;2.30;;;2.20;;
37931;SDS011;23758;42.640;23.302;2023-02-19T05:39:09;2.40;;;2.30;;
37931;SDS011;23758;42.640;23.302;2023-02-19T05:41:35;2.55;;;2.38;;
37931;SDS011;23758;42.640;23.302;2023-02-19T05:44:01;2.95;;;2.72;;
37931;SDS011;23758;42.640;23.302;2023-02-19T05:46:27;2.50;;;2.30;;
37931;SDS011;23758;42.640;23.302;2023-02-19T05:48:54;2.20;;;2.10;;
37931;SDS011;23758;42.640;23.302;2023-02-19T05:51:21;2.20;;;2.10;;
37931;SDS011;23758;42.640;23.302;2023-02-19T05:53:47;2.42;;;2.33;;
37931;SDS011;23758;42.640;23.302;2023-02-19T05:56:20;2.22;;;2.13;;
37931;SDS011;23758;42.640;23.302;2023-02-19T05:58:52;2.30;;;2.20;;
37931;SDS011;23758;42.640;23.302;2023-02-19T06:01:19;2.45;;;2.35;;
37931;SDS011;23758;42.640;23.302;2023-02-19T06:03:46;2.33;;;2.22;;
37931;SDS011;23758;42.640;23.302;2023-02-19T06:06:14;2.53;;;2.38;;
37931;SDS011;23758;42.640;23.302;2023-02-19T06:08:41;2.38;;;2.28;;
37931;SDS011;23758;42.640;23.302;2023-02-19T06:11:07;2.70;;;2.50;;
37931;SDS011;23758;42.640;23.302;2023-02-19T06:13:32;2.35;;;2.25;;
37931;SDS011;23758;42.640;23.302;2023-02-19T06:15:58;16.42;;;2.60;;
37931;SDS011;23758;42.640;23.302;2023-02-19T06:18:23;2.22;;;2.13;;
37931;SDS011;23758;42.640;23.302;2023-02-19T06:20:49;2.20;;;2.10;;
37931;SDS011;23758;42.640;23.302;2023-02-19T06:23:14;2.38;;;2.28;;
37931;SDS011;23758;42.640;23.302;2023-02-19T06:25:40;2.30;;;2.20;;
37931;SDS011;23758;42.640;23.302;2023-02-19T06:28:05;2.20;;;2.10;;
37931;SDS011;23758;42.640;23.302;2023-02-19T06:30:31;2.30;;;2.20;;
37931;SDS011;23758;42.640;23.302;2023-02-19T06:32:56;2.20;;;2.10;;
37931;SDS011;23758;42.640;23.302;2023-02-19T06:35:21;2.63;;;2.42;;
37931;SDS011;23758;42.640;23.302;2023-02-19T06:37:47;2.50;;;2.30;;
37931;SDS011;23758;42.640;23.302;2023-02-19T06:40:14;2.20;;;2.10;;
37931;SDS011;23758;42.640;23.302;2023-02-19T06:42:39;2.10;;;2.00;;
37931;SDS011;23758;42.640;23.302;2023-02-19T06:45:05;2.20;;;2.10;;
37931;SDS011;23758;42.640;23.302;2023-02-19T06:47:31;2.72;;;2.53;;
37931;SDS011;23758;42.640;23.302;2023-02-19T06:49:57;2.20;;;2.10;;
37931;SDS011;23758;42.640;23.302;2023-02-19T06:52:23;2.40;;;2.30;;
37931;SDS011;23758;42.640;23.302;2023-02-19T06:54:48;2.30;;;2.20;;
37931;SDS011;23758;42.640;23.302;2023-02-19T06:57:14;2.63;;;2.42;;
37931;SDS011;23758;42.640;23.302;2023-02-19T06:59:39;2.60;;;2.40;;
37931;SDS011;23758;42.640;23.302;2023-02-19T07:02:04;2.30;;;2.20;;
37931;SDS011;23758;42.640;23.302;2023-02-19T07:04:30;2.20;;;2.10;;
37931;SDS011;23758;42.640;23.302;2023-02-19T07:06:56;2.50;;;2.40;;
37931;SDS011;23758;42.640;23.302;2023-02-19T07:09:21;2.30;;;2.20;;
37931;SDS011;23758;42.640;23.302;2023-02-19T07:11:49;2.22;;;2.13;;
37931;SDS011;23758;42.640;23.302;2023-02-19T07:14:15;2.22;;;2.13;;
37931;SDS011;23758;42.640;23.302;2023-02-19T07:16:41;2.22;;;2.13;;
37931;SDS011;23758;42.640;23.302;2023-02-19T07:19:06;2.50;;;2.30;;
37931;SDS011;23758;42.640;23.302;2023-02-19T07:21:32;2.25;;;2.15;;
37931;SDS011;23758;42.640;23.302;2023-02-19T07:24:01;2.40;;;2.30;;
37931;SDS011;23758;42.640;23.302;2023-02-19T07:26:27;2.67;;;2.47;;
37931;SDS011;23758;42.640;23.302;2023-02-19T07:28:53;2.85;;;2.65;;
37931;SDS011;23758;42.640;23.302;2023-02-19T07:31:19;2.25;;;2.15;;
37931;SDS011;23758;42.640;23.302;2023-02-19T07:33:46;2.20;;;2.10;;
37931;SDS011;23758;42.640;23.302;2023-02-19T07:36:12;2.30;;;2.20;;
37931;SDS011;23758;42.640;23.302;2023-02-19T07:38:38;2.40;;;2.30;;
37931;SDS011;23758;42.640;23.302;2023-02-19T07:41:04;2.50;;;2.30;;
37931;SDS011;23758;42.640;23.302;2023-02-19T07:43:31;2.60;;;2.40;;
37931;SDS011;23758;42.640;23.302;2023-02-19T07:45:58;2.20;;;2.10;;
37931;SDS011;23758;42.640;23.302;2023-02-19T07:48:27;2.10;;;2.00;;
37931;SDS011;23758;42.640;23.302;2023-02-19T07:50:53;2.13;;;2.03;;
37931;SDS011;23758;42.640;23.302;2023-02-19T07:53:20;2.25;;;2.15;;
37931;SDS011;23758;42.640;23.302;2023-02-19T07:55:46;2.10;;;2.00;;
37931;SDS011;23758;42.640;23.302;2023-02-19T07:58:11;2.17;;;2.08;;
37931;SDS011;23758;42.640;23.302;2023-02-19T08:00:37;2.00;;;1.90;;
37931;SDS011;23758;42.640;23.302;2023-02-19T08:03:02;2.10;;;2.00;;
37931;SDS011;23758;42.640;23.302;2023-02-19T08:05:31;2.05;;;1.95;;
37931;SDS011;23758;42.640;23.302;2023-02-19T08:07:58;2.40;;;2.22;;
37931;SDS011;23758;42.640;23.302;2023-02-19T08:10:24;2.00;;;1.90;;
37931;SDS011;23758;42.640;23.302;2023-02-19T08:13:12;2.13;;;2.03;;
37931;SDS011;23758;42.640;23.302;2023-02-19T08:18:28;2.17;;;2.08;;
37931;SDS011;23758;42.640;23.302;2023-02-19T08:20:55;2.08;;;1.98;;
37931;SDS011;23758;42.640;23.302;2023-02-19T08:23:21;2.25;;;2.15;;
37931;SDS011;23758;42.640;23.302;2023-02-19T08:25:47;2.05;;;1.95;;
37931;SDS011;23758;42.640;23.302;2023-02-19T08:28:14;2.25;;;2.13;;
37931;SDS011;23758;42.640;23.302;2023-02-19T08:30:41;2.00;;;1.90;;
37931;SDS011;23758;42.640;23.302;2023-02-19T08:33:14;2.00;;;1.90;;
37931;SDS011;23758;42.640;23.302;2023-02-19T08:35:41;2.20;;;2.10;;
37931;SDS011;23758;42.640;23.302;2023-02-19T08:38:07;2.00;;;1.90;;
37931;SDS011;23758;42.640;23.302;2023-02-19T08:40:33;2.25;;;2.15;;
37931;SDS011;23758;42.640;23.302;2023-02-19T08:43:02;2.22;;;2.13;;
37931;SDS011;23758;42.640;23.302;2023-02-19T08:45:32;2.13;;;2.03;;
37931;SDS011;23758;42.640;23.302;2023-02-19T08:47:58;2.58;;;2.38;;
37931;SDS011;23758;42.640;23.302;2023-02-19T08:50:24;2.20;;;2.10;;
37931;SDS011;23758;42.640;23.302;2023-02-19T08:52:50;2.20;;;2.10;;
37931;SDS011;23758;42.640;23.302;2023-02-19T08:55:15;2.20;;;2.10;;
37931;SDS011;23758;42.640;23.302;2023-02-19T08:57:41;2.20;;;2.10;;
37931;SDS011;23758;42.640;23.302;2023-02-19T09:00:07;2.20;;;2.10;;
37931;SDS011;23758;42.640;23.302;2023-02-19T09:02:33;2.40;;;2.30;;
37931;SDS011;23758;42.640;23.302;2023-02-19T09:04:59;2.55;;;2.38;;
37931;SDS011;23758;42.640;23.302;2023-02-19T09:07:25;2.05;;;1.95;;
37931;SDS011;23758;42.640;23.302;2023-02-19T09:09:50;2.10;;;2.00;;
37931;SDS011;23758;42.640;23.302;2023-02-19T09:12:16;2.20;;;2.10;;
37931;SDS011;23758;42.640;23.302;2023-02-19T09:14:41;2.20;;;2.10;;
37931;SDS011;23758;42.640;23.302;2023-02-19T09:17:07;2.20;;;2.10;;
37931;SDS011;23758;42.640;23.302;2023-02-19T09:19:33;2.30;;;2.20;;
37931;SDS011;23758;42.640;23.302;2023-02-19T09:21:59;2.10;;;2.00;;
37931;SDS011;23758;42.640;23.302;2023-02-19T09:24:24;2.20;;;2.10;;
37931;SDS011;23758;42.640;23.302;2023-02-19T09:26:50;2.38;;;2.28;;
37931;SDS011;23758;42.640;23.302;2023-02-19T09:29:17;2.13;;;2.03;;
37931;SDS011;23758;42.640;23.302;2023-02-19T09:31:42;2.22;;;2.13;;
37931;SDS011;23758;42.640;23.302;2023-02-19T09:34:08;2.60;;;2.40;;
37931;SDS011;23758;42.640;23.302;2023-02-19T09:36:34;2.40;;;2.30;;
37931;SDS011;23758;42.640;23.302;2023-02-19T09:38:59;2.72;;;2.53;;
37931;SDS011;23758;42.640;23.302;2023-02-19T09:43:57;2.70;;;2.50;;
37931;SDS011;23758;42.640;23.302;2023-02-19T09:46:27;2.67;;;2.47;;
37931;SDS011;23758;42.640;23.302;2023-02-19T09:49:57;2.22;;;2.13;;
37931;SDS011;23758;42.640;23.302;2023-02-19T09:51:59;2.45;;;2.33;;
37931;SDS011;23758;42.640;23.302;2023-02-19T09:54:37;2.22;;;2.13;;
37931;SDS011;23758;42.640;23.302;2023-02-19T09:57:04;2.40;;;2.30;;
37931;SDS011;23758;42.640;23.302;2023-02-19T09:59:39;2.40;;;2.30;;
37931;SDS011;23758;42.640;23.302;2023-02-19T10:02:16;2.30;;;2.20;;
37931;SDS011;23758;42.640;23.302;2023-02-19T10:04:44;2.20;;;2.10;;
37931;SDS011;23758;42.640;23.302;2023-02-19T10:07:24;2.40;;;2.30;;
37931;SDS011;23758;42.640;23.302;2023-02-19T10:12:24;2.50;;;2.35;;
37931;SDS011;23758;42.640;23.302;2023-02-19T10:14:53;2.35;;;2.25;;
37931;SDS011;23758;42.640;23.302;2023-02-19T10:17:26;2.10;;;2.00;;
37931;SDS011;23758;42.640;23.302;2023-02-19T10:19:54;2.20;;;2.10;;
37931;SDS011;23758;42.640;23.302;2023-02-19T10:22:21;2.53;;;2.38;;
37931;SDS011;23758;42.640;23.302;2023-02-19T10:24:48;2.20;;;2.10;;
37931;SDS011;23758;42.640;23.302;2023-02-19T10:27:16;2.60;;;2.40;;
37931;SDS011;23758;42.640;23.302;2023-02-19T10:29:42;2.30;;;2.20;;
37931;SDS011;23758;42.640;23.302;2023-02-19T10:32:12;2.20;;;2.10;;
37931;SDS011;23758;42.640;23.302;2023-02-19T10:34:45;2.17;;;2.08;;
37931;SDS011;23758;42.640;23.302;2023-02-19T10:37:13;1.90;;;1.80;;
37931;SDS011;23758;42.640;23.302;2023-02-19T10:39:41;1.90;;;1.80;;
37931;SDS011;23758;42.640;23.302;2023-02-19T10:42:15;2.03;;;1.92;;
37931;SDS011;23758;42.640;23.302;2023-02-19T10:44:45;2.00;;;1.90;;
37931;SDS011;23758;42.640;23.302;2023-02-19T10:47:14;2.00;;;1.90;;
37931;SDS011;23758;42.640;23.302;2023-02-19T10:49:41;2.25;;;2.15;;
37931;SDS011;23758;42.640;23.302;2023-02-19T10:54:45;2.10;;;2.00;;
37931;SDS011;23758;42.640;23.302;2023-02-19T10:59:53;2.15;;;2.05;;
37931;SDS011;23758;42.640;23.302;2023-02-19T11:02:37;1.90;;;1.80;;
37931;SDS011;23758;42.640;23.302;2023-02-19T11:05:04;2.20;;;2.05;;
37931;SDS011;23758;42.640;23.302;2023-02-19T11:07:34;2.08;;;1.98;;
37931;SDS011;23758;42.640;23.302;2023-02-19T11:10:01;2.58;;;2.28;;
37931;SDS011;23758;42.640;23.302;2023-02-19T11:12:28;1.80;;;1.70;;
37931;SDS011;23758;42.640;23.302;2023-02-19T11:14:55;1.83;;;1.73;;
37931;SDS011;23758;42.640;23.302;2023-02-19T11:17:25;1.80;;;1.70;;
37931;SDS011;23758;42.640;23.302;2023-02-19T11:19:59;2.00;;;1.90;;
37931;SDS011;23758;42.640;23.302;2023-02-19T11:22:38;1.90;;;1.80;;
37931;SDS011;23758;42.640;23.302;2023-02-19T11:27:34;2.03;;;1.92;;
37931;SDS011;23758;42.640;23.302;2023-02-19T11:30:45;1.80;;;1.70;;
37931;SDS011;23758;42.640;23.302;2023-02-19T11:32:45;1.77;;;1.67;;
37931;SDS011;23758;42.640;23.302;2023-02-19T11:35:18;1.92;;;1.83;;
37931;SDS011;23758;42.640;23.302;2023-02-19T11:37:57;2.13;;;2.03;;
37931;SDS011;23758;42.640;23.302;2023-02-19T11:40:28;2.00;;;1.90;;
37931;SDS011;23758;42.640;23.302;2023-02-19T11:43:06;1.90;;;1.80;;
37931;SDS011;23758;42.640;23.302;2023-02-19T11:45:50;1.90;;;1.80;;
37931;SDS011;23758;42.640;23.302;2023-02-19T11:54:36;1.90;;;1.80;;
37931;SDS011;23758;42.640;23.302;2023-02-19T12:02:41;2.03;;;1.92;;
37931;SDS011;23758;42.640;23.302;2023-02-19T12:08:29;1.80;;;1.70;;
37931;SDS011;23758;42.640;23.302;2023-02-19T12:19:42;2.00;;;1.90;;
37931;SDS011;23758;42.640;23.302;2023-02-19T12:22:19;1.90;;;1.80;;
37931;SDS011;23758;42.640;23.302;2023-02-19T12:35:28;1.80;;;1.70;;
37931;SDS011;23758;42.640;23.302;2023-02-19T12:43:39;1.90;;;1.80;;
37931;SDS011;23758;42.640;23.302;2023-02-19T12:48:54;2.35;;;2.15;;
37931;SDS011;23758;42.640;23.302;2023-02-19T12:57:07;1.80;;;1.70;;
37931;SDS011;23758;42.640;23.302;2023-02-19T12:59:57;2.00;;;1.90;;
37931;SDS011;23758;42.640;23.302;2023-02-19T13:02:39;1.95;;;1.85;;
37931;SDS011;23758;42.640;23.302;2023-02-19T13:07:44;1.90;;;1.80;;
37931;SDS011;23758;42.640;23.302;2023-02-19T13:10:29;1.80;;;1.70;;
37931;SDS011;23758;42.640;23.302;2023-02-19T13:13:00;2.00;;;1.90;;
37931;SDS011;23758;42.640;23.302;2023-02-19T13:15:37;1.80;;;1.70;;
37931;SDS011;23758;42.640;23.302;2023-02-19T13:18:09;1.90;;;1.80;;
37931;SDS011;23758;42.640;23.302;2023-02-19T13:20:38;2.00;;;1.90;;
37931;SDS011;23758;42.640;23.302;2023-02-19T13:28:24;1.92;;;1.83;;
37931;SDS011;23758;42.640;23.302;2023-02-19T13:31:19;2.33;;;1.88;;
37931;SDS011;23758;42.640;23.302;2023-02-19T13:37:04;1.90;;;1.80;;
37931;SDS011;23758;42.640;23.302;2023-02-19T13:39:30;1.92;;;1.83;;
37931;SDS011;23758;42.640;23.302;2023-02-19T13:41:56;1.90;;;1.80;;
37931;SDS011;23758;42.640;23.302;2023-02-19T13:44:29;2.15;;;1.98;;
37931;SDS011;23758;42.640;23.302;2023-02-19T13:46:56;1.90;;;1.80;;
37931;SDS011;23758;42.640;23.302;2023-02-19T13:52:38;2.58;;;2.38;;
37931;SDS011;23758;42.640;23.302;2023-02-19T13:55:42;2.08;;;1.98;;
37931;SDS011;23758;42.640;23.302;2023-02-19T14:00:57;1.85;;;1.75;;
37931;SDS011;23758;42.640;23.302;2023-02-19T14:03:28;2.00;;;1.90;;
37931;SDS011;23758;42.640;23.302;2023-02-19T14:06:00;2.10;;;2.00;;
37931;SDS011;23758;42.640;23.302;2023-02-19T14:11:14;1.95;;;1.85;;
37931;SDS011;23758;42.640;23.302;2023-02-19T14:16:47;2.00;;;1.90;;
37931;SDS011;23758;42.640;23.302;2023-02-19T14:19:02;2.45;;;2.25;;
37931;SDS011;23758;42.640;23.302;2023-02-19T14:21:37;2.05;;;1.95;;
37931;SDS011;23758;42.640;23.302;2023-02-19T14:24:04;1.95;;;1.85;;
37931;SDS011;23758;42.640;23.302;2023-02-19T14:26:33;1.92;;;1.83;;
37931;SDS011;23758;42.640;23.302;2023-02-19T14:28:59;2.28;;;1.95;;
37931;SDS011;23758;42.640;23.302;2023-02-19T14:31:38;2.45;;;2.08;;
37931;SDS011;23758;42.640;23.302;2023-02-19T14:34:05;2.10;;;2.00;;
37931;SDS011;23758;42.640;23.302;2023-02-19T14:36:52;3.13;;;2.83;;
37931;SDS011;23758;42.640;23.302;2023-02-19T14:39:29;2.78;;;2.53;;
37931;SDS011;23758;42.640;23.302;2023-02-19T14:41:56;2.58;;;2.38;;
37931;SDS011;23758;42.640;23.302;2023-02-19T14:44:24;2.90;;;2.60;;
37931;SDS011;23758;42.640;23.302;2023-02-19T14:46:59;2.95;;;2.75;;
37931;SDS011;23758;42.640;23.302;2023-02-19T14:49:39;2.13;;;2.03;;
37931;SDS011;23758;42.640;23.302;2023-02-19T14:52:18;2.22;;;2.10;;
37931;SDS011;23758;42.640;23.302;2023-02-19T14:54:48;2.40;;;2.20;;
37931;SDS011;23758;42.640;23.302;2023-02-19T14:57:18;2.50;;;2.30;;
37931;SDS011;23758;42.640;23.302;2023-02-19T14:59:59;2.17;;;2.05;;
37931;SDS011;23758;42.640;23.302;2023-02-19T15:02:26;2.10;;;2.00;;
37931;SDS011;23758;42.640;23.302;2023-02-19T15:04:53;2.17;;;2.00;;
37931;SDS011;23758;42.640;23.302;2023-02-19T15:07:20;2.25;;;2.10;;
37931;SDS011;23758;42.640;23.302;2023-02-19T15:09:49;1.90;;;1.80;;
37931;SDS011;23758;42.640;23.302;2023-02-19T15:12:20;2.40;;;2.20;;
37931;SDS011;23758;42.640;23.302;2023-02-19T15:14:46;2.30;;;2.10;;
37931;SDS011;23758;42.640;23.302;2023-02-19T15:17:31;2.55;;;2.40;;
37931;SDS011;23758;42.640;23.302;2023-02-19T15:19:59;2.63;;;2.42;;
37931;SDS011;23758;42.640;23.302;2023-02-19T15:22:29;2.17;;;2.08;;
37931;SDS011;23758;42.640;23.302;2023-02-19T15:24:59;2.25;;;2.13;;
37931;SDS011;23758;42.640;23.302;2023-02-19T15:27:25;2.10;;;2.00;;
37931;SDS011;23758;42.640;23.302;2023-02-19T15:29:51;2.05;;;1.95;;
37931;SDS011;23758;42.640;23.302;2023-02-19T15:32:21;2.25;;;2.15;;
37931;SDS011;23758;42.640;23.302;2023-02-19T15:37:29;2.83;;;2.40;;
37931;SDS011;23758;42.640;23.302;2023-02-19T15:39:57;2.33;;;2.20;;
37931;SDS011;23758;42.640;23.302;2023-02-19T15:42:24;2.65;;;2.45;;
37931;SDS011;23758;42.640;23.302;2023-02-19T15:44:53;2.47;;;2.35;;
37931;SDS011;23758;42.640;23.302;2023-02-19T15:47:47;2.30;;;2.20;;
37931;SDS011;23758;42.640;23.302;2023-02-19T15:50:15;2.78;;;2.58;;
37931;SDS011;23758;42.640;23.302;2023-02-19T15:55:33;2.28;;;2.17;;
37931;SDS011;23758;42.640;23.302;2023-02-19T15:58:07;2.70;;;2.50;;
37931;SDS011;23758;42.640;23.302;2023-02-19T16:00:40;2.40;;;2.30;;
37931;SDS011;23758;42.640;23.302;2023-02-19T16:03:15;3.25;;;3.03;;
37931;SDS011;23758;42.640;23.302;2023-02-19T16:05:42;2.58;;;2.40;;
37931;SDS011;23758;42.640;23.302;2023-02-19T16:10:37;3.00;;;2.80;;
37931;SDS011;23758;42.640;23.302;2023-02-19T16:13:03;2.78;;;2.58;;
37931;SDS011;23758;42.640;23.302;2023-02-19T16:15:30;3.10;;;2.90;;
37931;SDS011;23758;42.640;23.302;2023-02-19T16:17:56;2.95;;;2.75;;
37931;SDS011;23758;42.640;23.302;2023-02-19T16:20:24;3.10;;;2.90;;
37931;SDS011;23758;42.640;23.302;2023-02-19T16:22:54;2.63;;;2.42;;
37931;SDS011;23758;42.640;23.302;2023-02-19T16:25:23;2.60;;;2.40;;
37931;SDS011;23758;42.640;23.302;2023-02-19T16:28:36;2.53;;;2.40;;
37931;SDS011;23758;42.640;23.302;2023-02-19T16:30:59;2.70;;;2.50;;
37931;SDS011;23758;42.640;23.302;2023-02-19T16:42:17;2.80;;;2.60;;
37931;SDS011;23758;42.640;23.302;2023-02-19T16:46:53;2.70;;;2.50;;
37931;SDS011;23758;42.640;23.302;2023-02-19T16:49:20;2.63;;;2.42;;
37931;SDS011;23758;42.640;23.302;2023-02-19T16:51:46;2.95;;;2.75;;
37931;SDS011;23758;42.640;23.302;2023-02-19T16:54:12;2.70;;;2.50;;
37931;SDS011;23758;42.640;23.302;2023-02-19T16:56:37;2.78;;;2.58;;
37931;SDS011;23758;42.640;23.302;2023-02-19T16:59:03;2.47;;;2.38;;